sensor_id;sensor_type;location;lat;lon;timestamp;P1;durP1;ratioP1;P2;durP2;ratioP2
11809;SDS011;5962;41.566;23.734;2023-12-22T00:00:35;30.40;;;17.00;;
11809;SDS011;5962;41.566;23.734;2023-12-22T00:03:03;31.90;;;18.47;;
11809;SDS011;5962;41.566;23.734;2023-12-22T00:05:31;27.20;;;16.97;;
11809;SDS011;5962;41.566;23.734;2023-12-22T00:07:59;30.00;;;16.97;;
11809;SDS011;5962;41.566;23.734;2023-12-22T00:10:27;37.13;;;22.17;;
11809;SDS011;5962;41.566;23.734;2023-12-22T00:12:57;38.37;;;23.03;;
11809;SDS011;5962;41.566;23.734;2023-12-22T00:15:25;53.93;;;31.80;;
11809;SDS011;5962;41.566;23.734;2023-12-22T00:17:53;55.23;;;32.63;;
11809;SDS011;5962;41.566;23.734;2023-12-22T00:20:21;49.57;;;29.37;;
11809;SDS011;5962;41.566;23.734;2023-12-22T00:22:49;56.37;;;32.13;;
11809;SDS011;5962;41.566;23.734;2023-12-22T00:25:17;51.30;;;33.33;;
11809;SDS011;5962;41.566;23.734;2023-12-22T00:27:45;51.20;;;31.90;;
11809;SDS011;5962;41.566;23.734;2023-12-22T00:30:15;55.90;;;33.97;;
11809;SDS011;5962;41.566;23.734;2023-12-22T00:32:43;52.43;;;30.53;;
11809;SDS011;5962;41.566;23.734;2023-12-22T00:35:11;61.40;;;33.87;;
11809;SDS011;5962;41.566;23.734;2023-12-22T00:37:39;59.27;;;34.00;;
11809;SDS011;5962;41.566;23.734;2023-12-22T00:40:07;51.17;;;30.00;;
11809;SDS011;5962;41.566;23.734;2023-12-22T00:42:36;52.93;;;31.17;;
11809;SDS011;5962;41.566;23.734;2023-12-22T00:45:04;47.00;;;29.73;;
11809;SDS011;5962;41.566;23.734;2023-12-22T00:47:34;51.73;;;28.87;;
11809;SDS011;5962;41.566;23.734;2023-12-22T00:50:03;45.77;;;29.03;;
11809;SDS011;5962;41.566;23.734;2023-12-22T00:52:31;59.23;;;33.13;;
11809;SDS011;5962;41.566;23.734;2023-12-22T00:54:59;54.13;;;32.53;;
11809;SDS011;5962;41.566;23.734;2023-12-22T00:57:27;55.57;;;32.60;;
11809;SDS011;5962;41.566;23.734;2023-12-22T00:59:56;55.37;;;31.17;;
11809;SDS011;5962;41.566;23.734;2023-12-22T01:02:24;47.00;;;29.23;;
11809;SDS011;5962;41.566;23.734;2023-12-22T01:04:53;42.00;;;26.03;;
11809;SDS011;5962;41.566;23.734;2023-12-22T01:07:22;49.47;;;28.37;;
11809;SDS011;5962;41.566;23.734;2023-12-22T01:09:50;51.53;;;28.57;;
11809;SDS011;5962;41.566;23.734;2023-12-22T01:12:18;47.93;;;28.47;;
11809;SDS011;5962;41.566;23.734;2023-12-22T01:14:46;46.73;;;28.03;;
11809;SDS011;5962;41.566;23.734;2023-12-22T01:17:17;42.80;;;26.67;;
11809;SDS011;5962;41.566;23.734;2023-12-22T01:19:45;44.50;;;26.07;;
11809;SDS011;5962;41.566;23.734;2023-12-22T01:22:14;38.67;;;25.13;;
11809;SDS011;5962;41.566;23.734;2023-12-22T01:24:42;45.33;;;26.10;;
11809;SDS011;5962;41.566;23.734;2023-12-22T01:27:11;44.80;;;26.50;;
11809;SDS011;5962;41.566;23.734;2023-12-22T01:29:40;53.90;;;29.50;;
11809;SDS011;5962;41.566;23.734;2023-12-22T01:32:07;46.60;;;28.07;;
11809;SDS011;5962;41.566;23.734;2023-12-22T01:34:35;48.03;;;28.60;;
11809;SDS011;5962;41.566;23.734;2023-12-22T01:37:03;61.17;;;33.47;;
11809;SDS011;5962;41.566;23.734;2023-12-22T01:39:33;47.77;;;28.10;;
11809;SDS011;5962;41.566;23.734;2023-12-22T01:42:01;46.93;;;28.80;;
11809;SDS011;5962;41.566;23.734;2023-12-22T01:44:29;46.23;;;26.97;;
11809;SDS011;5962;41.566;23.734;2023-12-22T01:46:57;42.67;;;26.87;;
11809;SDS011;5962;41.566;23.734;2023-12-22T01:49:25;41.33;;;26.63;;
11809;SDS011;5962;41.566;23.734;2023-12-22T01:51:56;41.57;;;25.33;;
11809;SDS011;5962;41.566;23.734;2023-12-22T01:54:24;41.13;;;24.93;;
11809;SDS011;5962;41.566;23.734;2023-12-22T01:56:54;36.67;;;23.47;;
11809;SDS011;5962;41.566;23.734;2023-12-22T01:59:22;42.53;;;24.03;;
11809;SDS011;5962;41.566;23.734;2023-12-22T02:01:51;39.27;;;23.50;;
11809;SDS011;5962;41.566;23.734;2023-12-22T02:04:20;38.00;;;24.90;;
11809;SDS011;5962;41.566;23.734;2023-12-22T02:06:48;38.93;;;23.37;;
11809;SDS011;5962;41.566;23.734;2023-12-22T02:09:16;40.30;;;26.90;;
11809;SDS011;5962;41.566;23.734;2023-12-22T02:11:44;41.27;;;26.20;;
11809;SDS011;5962;41.566;23.734;2023-12-22T02:14:14;45.10;;;27.30;;
11809;SDS011;5962;41.566;23.734;2023-12-22T02:16:42;47.60;;;28.57;;
11809;SDS011;5962;41.566;23.734;2023-12-22T02:19:16;40.77;;;23.60;;
11809;SDS011;5962;41.566;23.734;2023-12-22T02:22:01;44.03;;;25.50;;
11809;SDS011;5962;41.566;23.734;2023-12-22T02:24:33;41.63;;;25.57;;
11809;SDS011;5962;41.566;23.734;2023-12-22T02:27:03;41.83;;;25.63;;
11809;SDS011;5962;41.566;23.734;2023-12-22T02:29:35;37.87;;;25.13;;
11809;SDS011;5962;41.566;23.734;2023-12-22T02:32:06;36.37;;;23.33;;
11809;SDS011;5962;41.566;23.734;2023-12-22T02:34:37;45.00;;;23.60;;
11809;SDS011;5962;41.566;23.734;2023-12-22T02:37:11;35.77;;;22.97;;
11809;SDS011;5962;41.566;23.734;2023-12-22T02:39:41;32.73;;;21.23;;
11809;SDS011;5962;41.566;23.734;2023-12-22T02:42:10;33.47;;;21.17;;
11809;SDS011;5962;41.566;23.734;2023-12-22T02:44:39;35.17;;;22.00;;
11809;SDS011;5962;41.566;23.734;2023-12-22T02:47:08;30.87;;;20.50;;
11809;SDS011;5962;41.566;23.734;2023-12-22T02:49:36;33.77;;;21.50;;
11809;SDS011;5962;41.566;23.734;2023-12-22T02:52:04;33.43;;;19.47;;
11809;SDS011;5962;41.566;23.734;2023-12-22T02:54:32;28.03;;;18.43;;
11809;SDS011;5962;41.566;23.734;2023-12-22T02:57:02;26.80;;;17.37;;
11809;SDS011;5962;41.566;23.734;2023-12-22T02:59:30;31.23;;;19.63;;
11809;SDS011;5962;41.566;23.734;2023-12-22T03:01:58;28.27;;;18.53;;
11809;SDS011;5962;41.566;23.734;2023-12-22T03:04:26;32.97;;;19.90;;
11809;SDS011;5962;41.566;23.734;2023-12-22T03:06:54;31.70;;;20.47;;
11809;SDS011;5962;41.566;23.734;2023-12-22T03:09:22;34.17;;;20.53;;
11809;SDS011;5962;41.566;23.734;2023-12-22T03:11:50;35.50;;;21.63;;
11809;SDS011;5962;41.566;23.734;2023-12-22T03:14:22;41.23;;;21.63;;
11809;SDS011;5962;41.566;23.734;2023-12-22T03:16:50;28.60;;;19.57;;
11809;SDS011;5962;41.566;23.734;2023-12-22T03:19:18;33.63;;;20.50;;
11809;SDS011;5962;41.566;23.734;2023-12-22T03:21:46;38.33;;;24.60;;
11809;SDS011;5962;41.566;23.734;2023-12-22T03:24:14;36.13;;;23.47;;
11809;SDS011;5962;41.566;23.734;2023-12-22T03:26:42;43.17;;;27.30;;
11809;SDS011;5962;41.566;23.734;2023-12-22T03:29:10;51.07;;;30.80;;
11809;SDS011;5962;41.566;23.734;2023-12-22T03:31:40;41.67;;;25.03;;
11809;SDS011;5962;41.566;23.734;2023-12-22T03:34:08;39.07;;;24.60;;
11809;SDS011;5962;41.566;23.734;2023-12-22T03:36:36;34.77;;;20.37;;
11809;SDS011;5962;41.566;23.734;2023-12-22T03:39:04;31.17;;;20.10;;
11809;SDS011;5962;41.566;23.734;2023-12-22T03:41:32;35.07;;;22.33;;
11809;SDS011;5962;41.566;23.734;2023-12-22T03:44:00;35.13;;;22.00;;
11809;SDS011;5962;41.566;23.734;2023-12-22T03:46:28;32.60;;;21.20;;
11809;SDS011;5962;41.566;23.734;2023-12-22T03:48:57;49.87;;;26.30;;
11809;SDS011;5962;41.566;23.734;2023-12-22T03:51:25;40.50;;;24.27;;
11809;SDS011;5962;41.566;23.734;2023-12-22T03:53:53;40.37;;;25.10;;
11809;SDS011;5962;41.566;23.734;2023-12-22T03:56:21;44.37;;;26.87;;
11809;SDS011;5962;41.566;23.734;2023-12-22T03:58:49;50.87;;;29.53;;
11809;SDS011;5962;41.566;23.734;2023-12-22T04:01:17;45.33;;;26.87;;
11809;SDS011;5962;41.566;23.734;2023-12-22T04:03:45;41.27;;;26.13;;
11809;SDS011;5962;41.566;23.734;2023-12-22T04:06:15;53.40;;;31.90;;
11809;SDS011;5962;41.566;23.734;2023-12-22T04:08:43;79.43;;;43.63;;
11809;SDS011;5962;41.566;23.734;2023-12-22T04:11:11;48.93;;;30.47;;
11809;SDS011;5962;41.566;23.734;2023-12-22T04:13:39;46.03;;;29.50;;
11809;SDS011;5962;41.566;23.734;2023-12-22T04:16:07;45.17;;;28.40;;
11809;SDS011;5962;41.566;23.734;2023-12-22T04:18:35;40.67;;;26.63;;
11809;SDS011;5962;41.566;23.734;2023-12-22T04:21:03;40.77;;;25.43;;
11809;SDS011;5962;41.566;23.734;2023-12-22T04:23:33;47.13;;;28.30;;
11809;SDS011;5962;41.566;23.734;2023-12-22T04:26:01;44.23;;;27.43;;
11809;SDS011;5962;41.566;23.734;2023-12-22T04:28:29;52.90;;;33.07;;
11809;SDS011;5962;41.566;23.734;2023-12-22T04:30:57;48.50;;;31.00;;
11809;SDS011;5962;41.566;23.734;2023-12-22T04:33:25;45.20;;;28.30;;
11809;SDS011;5962;41.566;23.734;2023-12-22T04:35:53;51.23;;;28.43;;
11809;SDS011;5962;41.566;23.734;2023-12-22T04:38:21;40.23;;;24.23;;
11809;SDS011;5962;41.566;23.734;2023-12-22T04:40:50;64.33;;;38.13;;
11809;SDS011;5962;41.566;23.734;2023-12-22T04:43:18;52.17;;;31.57;;
11809;SDS011;5962;41.566;23.734;2023-12-22T04:45:46;44.13;;;26.13;;
11809;SDS011;5962;41.566;23.734;2023-12-22T04:48:14;41.60;;;25.47;;
11809;SDS011;5962;41.566;23.734;2023-12-22T04:50:42;35.97;;;24.10;;
11809;SDS011;5962;41.566;23.734;2023-12-22T04:53:10;40.90;;;25.67;;
11809;SDS011;5962;41.566;23.734;2023-12-22T04:55:38;46.03;;;27.00;;
11809;SDS011;5962;41.566;23.734;2023-12-22T04:58:08;45.00;;;29.63;;
11809;SDS011;5962;41.566;23.734;2023-12-22T05:00:36;66.17;;;39.87;;
11809;SDS011;5962;41.566;23.734;2023-12-22T05:03:04;53.83;;;33.47;;
11809;SDS011;5962;41.566;23.734;2023-12-22T05:05:32;48.70;;;32.23;;
11809;SDS011;5962;41.566;23.734;2023-12-22T05:08:00;50.00;;;32.17;;
11809;SDS011;5962;41.566;23.734;2023-12-22T05:10:29;48.00;;;30.17;;
11809;SDS011;5962;41.566;23.734;2023-12-22T05:12:57;45.93;;;27.63;;
11809;SDS011;5962;41.566;23.734;2023-12-22T05:15:26;43.00;;;26.50;;
11809;SDS011;5962;41.566;23.734;2023-12-22T05:17:54;39.00;;;24.13;;
11809;SDS011;5962;41.566;23.734;2023-12-22T05:20:22;37.30;;;24.97;;
11809;SDS011;5962;41.566;23.734;2023-12-22T05:22:50;37.90;;;24.83;;
11809;SDS011;5962;41.566;23.734;2023-12-22T05:25:18;39.47;;;22.77;;
11809;SDS011;5962;41.566;23.734;2023-12-22T05:27:46;34.87;;;22.40;;
11809;SDS011;5962;41.566;23.734;2023-12-22T05:30:14;34.77;;;22.17;;
11809;SDS011;5962;41.566;23.734;2023-12-22T05:32:43;34.20;;;22.47;;
11809;SDS011;5962;41.566;23.734;2023-12-22T05:35:12;35.33;;;21.50;;
11809;SDS011;5962;41.566;23.734;2023-12-22T05:37:40;39.80;;;24.77;;
11809;SDS011;5962;41.566;23.734;2023-12-22T05:40:08;37.73;;;25.73;;
11809;SDS011;5962;41.566;23.734;2023-12-22T05:42:38;47.30;;;29.07;;
11809;SDS011;5962;41.566;23.734;2023-12-22T05:45:06;45.97;;;28.40;;
11809;SDS011;5962;41.566;23.734;2023-12-22T05:47:37;42.80;;;26.70;;
11809;SDS011;5962;41.566;23.734;2023-12-22T05:50:07;37.90;;;25.50;;
11809;SDS011;5962;41.566;23.734;2023-12-22T05:52:37;47.97;;;29.37;;
11809;SDS011;5962;41.566;23.734;2023-12-22T05:55:05;56.50;;;31.90;;
11809;SDS011;5962;41.566;23.734;2023-12-22T05:57:34;53.27;;;31.67;;
11809;SDS011;5962;41.566;23.734;2023-12-22T06:00:03;59.57;;;32.50;;
11809;SDS011;5962;41.566;23.734;2023-12-22T06:02:33;49.00;;;30.00;;
11809;SDS011;5962;41.566;23.734;2023-12-22T06:05:02;51.00;;;27.33;;
11809;SDS011;5962;41.566;23.734;2023-12-22T06:07:31;50.67;;;28.10;;
11809;SDS011;5962;41.566;23.734;2023-12-22T06:09:59;48.07;;;25.67;;
11809;SDS011;5962;41.566;23.734;2023-12-22T06:12:27;51.63;;;27.87;;
11809;SDS011;5962;41.566;23.734;2023-12-22T06:14:55;57.17;;;32.50;;
11809;SDS011;5962;41.566;23.734;2023-12-22T06:17:23;61.73;;;36.07;;
11809;SDS011;5962;41.566;23.734;2023-12-22T06:19:51;66.17;;;38.97;;
11809;SDS011;5962;41.566;23.734;2023-12-22T06:22:19;63.43;;;38.07;;
11809;SDS011;5962;41.566;23.734;2023-12-22T06:24:50;74.80;;;42.00;;
11809;SDS011;5962;41.566;23.734;2023-12-22T06:30:36;66.87;;;38.17;;
11809;SDS011;5962;41.566;23.734;2023-12-22T06:33:04;63.93;;;37.77;;
11809;SDS011;5962;41.566;23.734;2023-12-22T06:35:34;67.33;;;38.10;;
11809;SDS011;5962;41.566;23.734;2023-12-22T06:38:02;103.80;;;57.23;;
11809;SDS011;5962;41.566;23.734;2023-12-22T06:40:33;80.83;;;48.67;;
11809;SDS011;5962;41.566;23.734;2023-12-22T06:43:02;68.20;;;41.97;;
11809;SDS011;5962;41.566;23.734;2023-12-22T06:45:30;75.80;;;48.43;;
11809;SDS011;5962;41.566;23.734;2023-12-22T06:47:58;78.17;;;47.60;;
11809;SDS011;5962;41.566;23.734;2023-12-22T06:50:27;88.17;;;51.97;;
11809;SDS011;5962;41.566;23.734;2023-12-22T06:52:55;72.93;;;46.77;;
11809;SDS011;5962;41.566;23.734;2023-12-22T06:55:23;66.57;;;39.27;;
11809;SDS011;5962;41.566;23.734;2023-12-22T06:57:52;65.17;;;39.80;;
11809;SDS011;5962;41.566;23.734;2023-12-22T07:00:21;65.67;;;40.67;;
11809;SDS011;5962;41.566;23.734;2023-12-22T07:02:49;67.43;;;39.73;;
11809;SDS011;5962;41.566;23.734;2023-12-22T07:05:29;67.40;;;40.27;;
11809;SDS011;5962;41.566;23.734;2023-12-22T07:08:03;61.40;;;37.97;;
11809;SDS011;5962;41.566;23.734;2023-12-22T07:10:32;58.50;;;37.17;;
11809;SDS011;5962;41.566;23.734;2023-12-22T07:13:02;70.67;;;36.40;;
11809;SDS011;5962;41.566;23.734;2023-12-22T07:15:30;60.73;;;37.33;;
11809;SDS011;5962;41.566;23.734;2023-12-22T07:17:58;57.97;;;34.80;;
11809;SDS011;5962;41.566;23.734;2023-12-22T07:20:27;54.87;;;34.50;;
11809;SDS011;5962;41.566;23.734;2023-12-22T07:22:56;56.53;;;34.13;;
11809;SDS011;5962;41.566;23.734;2023-12-22T07:25:24;51.83;;;30.70;;
11809;SDS011;5962;41.566;23.734;2023-12-22T07:27:52;46.27;;;28.20;;
11809;SDS011;5962;41.566;23.734;2023-12-22T07:30:22;47.27;;;28.17;;
11809;SDS011;5962;41.566;23.734;2023-12-22T07:32:50;41.80;;;26.73;;
11809;SDS011;5962;41.566;23.734;2023-12-22T07:35:19;44.20;;;27.90;;
11809;SDS011;5962;41.566;23.734;2023-12-22T07:37:47;44.10;;;27.03;;
11809;SDS011;5962;41.566;23.734;2023-12-22T07:40:15;42.00;;;26.77;;
11809;SDS011;5962;41.566;23.734;2023-12-22T07:42:43;40.43;;;26.87;;
11809;SDS011;5962;41.566;23.734;2023-12-22T07:45:11;43.90;;;28.47;;
11809;SDS011;5962;41.566;23.734;2023-12-22T07:47:40;85.43;;;49.70;;
11809;SDS011;5962;41.566;23.734;2023-12-22T07:50:08;54.87;;;33.37;;
11809;SDS011;5962;41.566;23.734;2023-12-22T07:52:36;50.83;;;31.13;;
11809;SDS011;5962;41.566;23.734;2023-12-22T07:55:06;49.33;;;30.40;;
11809;SDS011;5962;41.566;23.734;2023-12-22T07:57:37;44.43;;;27.97;;
11809;SDS011;5962;41.566;23.734;2023-12-22T08:00:05;44.33;;;28.33;;
11809;SDS011;5962;41.566;23.734;2023-12-22T08:02:35;52.73;;;29.70;;
11809;SDS011;5962;41.566;23.734;2023-12-22T08:05:05;45.50;;;30.23;;
11809;SDS011;5962;41.566;23.734;2023-12-22T08:07:33;62.47;;;36.70;;
11809;SDS011;5962;41.566;23.734;2023-12-22T08:10:01;53.03;;;32.27;;
11809;SDS011;5962;41.566;23.734;2023-12-22T08:12:29;53.03;;;33.53;;
11809;SDS011;5962;41.566;23.734;2023-12-22T08:14:58;50.33;;;31.47;;
11809;SDS011;5962;41.566;23.734;2023-12-22T08:17:26;47.47;;;29.47;;
11809;SDS011;5962;41.566;23.734;2023-12-22T08:19:54;49.03;;;31.23;;
11809;SDS011;5962;41.566;23.734;2023-12-22T08:22:24;55.70;;;32.53;;
11809;SDS011;5962;41.566;23.734;2023-12-22T08:24:53;55.57;;;32.97;;
11809;SDS011;5962;41.566;23.734;2023-12-22T08:27:21;56.57;;;33.33;;
11809;SDS011;5962;41.566;23.734;2023-12-22T08:29:49;56.90;;;35.03;;
11809;SDS011;5962;41.566;23.734;2023-12-22T08:32:17;64.07;;;41.10;;
11809;SDS011;5962;41.566;23.734;2023-12-22T08:34:45;59.30;;;39.30;;
11809;SDS011;5962;41.566;23.734;2023-12-22T08:37:13;63.30;;;40.80;;
11809;SDS011;5962;41.566;23.734;2023-12-22T08:39:43;57.00;;;36.70;;
11809;SDS011;5962;41.566;23.734;2023-12-22T08:42:11;60.33;;;36.77;;
11809;SDS011;5962;41.566;23.734;2023-12-22T08:44:39;69.53;;;42.27;;
11809;SDS011;5962;41.566;23.734;2023-12-22T08:47:07;67.43;;;40.73;;
11809;SDS011;5962;41.566;23.734;2023-12-22T08:49:35;64.33;;;38.47;;
11809;SDS011;5962;41.566;23.734;2023-12-22T08:52:03;57.83;;;39.80;;
11809;SDS011;5962;41.566;23.734;2023-12-22T08:54:31;62.93;;;38.93;;
11809;SDS011;5962;41.566;23.734;2023-12-22T08:57:01;59.60;;;39.13;;
11809;SDS011;5962;41.566;23.734;2023-12-22T08:59:30;79.27;;;48.70;;
11809;SDS011;5962;41.566;23.734;2023-12-22T09:01:58;77.03;;;48.90;;
11809;SDS011;5962;41.566;23.734;2023-12-22T09:04:26;64.80;;;42.33;;
11809;SDS011;5962;41.566;23.734;2023-12-22T09:06:54;61.37;;;39.90;;
11809;SDS011;5962;41.566;23.734;2023-12-22T09:09:22;66.70;;;41.97;;
11809;SDS011;5962;41.566;23.734;2023-12-22T09:11:51;82.33;;;55.83;;
11809;SDS011;5962;41.566;23.734;2023-12-22T09:14:21;58.50;;;40.20;;
11809;SDS011;5962;41.566;23.734;2023-12-22T09:16:49;44.50;;;30.10;;
11809;SDS011;5962;41.566;23.734;2023-12-22T09:19:17;55.60;;;32.57;;
11809;SDS011;5962;41.566;23.734;2023-12-22T09:21:45;59.80;;;39.87;;
11809;SDS011;5962;41.566;23.734;2023-12-22T09:24:13;47.80;;;30.93;;
11809;SDS011;5962;41.566;23.734;2023-12-22T09:26:43;55.27;;;32.60;;
11809;SDS011;5962;41.566;23.734;2023-12-22T09:29:11;37.60;;;24.80;;
11809;SDS011;5962;41.566;23.734;2023-12-22T09:31:40;41.03;;;27.77;;
11809;SDS011;5962;41.566;23.734;2023-12-22T09:34:08;48.83;;;31.73;;
11809;SDS011;5962;41.566;23.734;2023-12-22T09:36:36;56.30;;;35.20;;
11809;SDS011;5962;41.566;23.734;2023-12-22T09:39:03;55.60;;;34.07;;
11809;SDS011;5962;41.566;23.734;2023-12-22T09:41:31;49.53;;;32.37;;
11809;SDS011;5962;41.566;23.734;2023-12-22T09:43:59;57.10;;;37.73;;
11809;SDS011;5962;41.566;23.734;2023-12-22T09:46:31;53.60;;;35.50;;
11809;SDS011;5962;41.566;23.734;2023-12-22T09:49:00;62.43;;;39.40;;
11809;SDS011;5962;41.566;23.734;2023-12-22T09:51:28;59.23;;;41.00;;
11809;SDS011;5962;41.566;23.734;2023-12-22T09:53:58;58.53;;;39.10;;
11809;SDS011;5962;41.566;23.734;2023-12-22T09:56:27;71.07;;;42.33;;
11809;SDS011;5962;41.566;23.734;2023-12-22T09:58:57;64.93;;;42.40;;
11809;SDS011;5962;41.566;23.734;2023-12-22T10:01:26;70.30;;;47.17;;
11809;SDS011;5962;41.566;23.734;2023-12-22T10:03:55;83.20;;;58.37;;
11809;SDS011;5962;41.566;23.734;2023-12-22T10:06:25;62.60;;;44.77;;
11809;SDS011;5962;41.566;23.734;2023-12-22T10:08:54;66.80;;;41.60;;
11809;SDS011;5962;41.566;23.734;2023-12-22T10:11:23;67.93;;;43.90;;
11809;SDS011;5962;41.566;23.734;2023-12-22T10:13:52;68.00;;;43.77;;
11809;SDS011;5962;41.566;23.734;2023-12-22T10:16:22;68.10;;;44.17;;
11809;SDS011;5962;41.566;23.734;2023-12-22T10:18:50;72.70;;;45.10;;
11809;SDS011;5962;41.566;23.734;2023-12-22T10:21:19;71.73;;;44.47;;
11809;SDS011;5962;41.566;23.734;2023-12-22T10:23:48;68.93;;;46.93;;
11809;SDS011;5962;41.566;23.734;2023-12-22T10:26:16;65.50;;;43.27;;
11809;SDS011;5962;41.566;23.734;2023-12-22T10:28:46;57.37;;;37.87;;
11809;SDS011;5962;41.566;23.734;2023-12-22T10:31:15;46.87;;;32.37;;
11809;SDS011;5962;41.566;23.734;2023-12-22T10:33:43;44.03;;;27.50;;
11809;SDS011;5962;41.566;23.734;2023-12-22T10:36:11;42.60;;;27.07;;
11809;SDS011;5962;41.566;23.734;2023-12-22T10:38:39;42.23;;;29.53;;
11809;SDS011;5962;41.566;23.734;2023-12-22T10:41:10;44.47;;;30.60;;
11809;SDS011;5962;41.566;23.734;2023-12-22T10:43:39;48.80;;;31.40;;
11809;SDS011;5962;41.566;23.734;2023-12-22T10:46:07;52.63;;;32.00;;
11809;SDS011;5962;41.566;23.734;2023-12-22T10:48:37;43.93;;;29.40;;
11809;SDS011;5962;41.566;23.734;2023-12-22T10:51:08;42.50;;;29.00;;
11809;SDS011;5962;41.566;23.734;2023-12-22T10:53:40;45.10;;;29.43;;
11809;SDS011;5962;41.566;23.734;2023-12-22T10:56:08;46.70;;;28.87;;
11809;SDS011;5962;41.566;23.734;2023-12-22T10:58:38;28.83;;;20.63;;
11809;SDS011;5962;41.566;23.734;2023-12-22T11:01:06;31.73;;;21.33;;
11809;SDS011;5962;41.566;23.734;2023-12-22T11:03:35;32.20;;;20.67;;
11809;SDS011;5962;41.566;23.734;2023-12-22T11:06:06;33.43;;;20.33;;
11809;SDS011;5962;41.566;23.734;2023-12-22T11:08:38;36.53;;;22.33;;
11809;SDS011;5962;41.566;23.734;2023-12-22T11:11:13;35.03;;;21.47;;
11809;SDS011;5962;41.566;23.734;2023-12-22T11:13:49;31.27;;;19.53;;
11809;SDS011;5962;41.566;23.734;2023-12-22T11:16:18;17.10;;;11.53;;
11809;SDS011;5962;41.566;23.734;2023-12-22T11:18:48;17.57;;;12.37;;
11809;SDS011;5962;41.566;23.734;2023-12-22T11:21:19;18.00;;;11.93;;
11809;SDS011;5962;41.566;23.734;2023-12-22T11:23:49;15.50;;;11.33;;
11809;SDS011;5962;41.566;23.734;2023-12-22T11:26:18;17.97;;;11.33;;
11809;SDS011;5962;41.566;23.734;2023-12-22T11:28:47;22.40;;;12.57;;
11809;SDS011;5962;41.566;23.734;2023-12-22T11:31:18;19.07;;;12.23;;
11809;SDS011;5962;41.566;23.734;2023-12-22T11:33:48;17.30;;;12.20;;
11809;SDS011;5962;41.566;23.734;2023-12-22T11:36:19;18.70;;;13.07;;
11809;SDS011;5962;41.566;23.734;2023-12-22T11:38:47;23.37;;;13.57;;
11809;SDS011;5962;41.566;23.734;2023-12-22T11:41:17;22.10;;;14.50;;
11809;SDS011;5962;41.566;23.734;2023-12-22T11:43:49;16.90;;;11.43;;
11809;SDS011;5962;41.566;23.734;2023-12-22T11:46:19;36.17;;;17.57;;
11809;SDS011;5962;41.566;23.734;2023-12-22T11:48:47;26.00;;;17.53;;
11809;SDS011;5962;41.566;23.734;2023-12-22T11:51:16;18.33;;;13.73;;
11809;SDS011;5962;41.566;23.734;2023-12-22T11:53:45;22.60;;;16.77;;
11809;SDS011;5962;41.566;23.734;2023-12-22T11:56:13;30.83;;;17.80;;
11809;SDS011;5962;41.566;23.734;2023-12-22T11:58:44;28.90;;;15.97;;
11809;SDS011;5962;41.566;23.734;2023-12-22T12:01:19;35.10;;;19.30;;
11809;SDS011;5962;41.566;23.734;2023-12-22T12:03:49;24.77;;;16.30;;
11809;SDS011;5962;41.566;23.734;2023-12-22T12:06:30;26.23;;;19.30;;
11809;SDS011;5962;41.566;23.734;2023-12-22T12:09:00;30.10;;;19.20;;
11809;SDS011;5962;41.566;23.734;2023-12-22T12:14:40;18.37;;;13.10;;
11809;SDS011;5962;41.566;23.734;2023-12-22T12:17:12;28.57;;;16.87;;
11809;SDS011;5962;41.566;23.734;2023-12-22T12:19:44;23.57;;;14.73;;
11809;SDS011;5962;41.566;23.734;2023-12-22T12:22:15;18.43;;;13.60;;
11809;SDS011;5962;41.566;23.734;2023-12-22T12:24:44;22.03;;;13.67;;
11809;SDS011;5962;41.566;23.734;2023-12-22T12:27:17;20.63;;;15.13;;
11809;SDS011;5962;41.566;23.734;2023-12-22T12:29:45;21.73;;;15.20;;
11809;SDS011;5962;41.566;23.734;2023-12-22T12:32:15;27.93;;;17.20;;
11809;SDS011;5962;41.566;23.734;2023-12-22T12:34:43;48.70;;;23.20;;
11809;SDS011;5962;41.566;23.734;2023-12-22T12:37:11;28.47;;;17.90;;
11809;SDS011;5962;41.566;23.734;2023-12-22T12:39:39;23.63;;;17.03;;
11809;SDS011;5962;41.566;23.734;2023-12-22T12:42:10;33.67;;;20.57;;
11809;SDS011;5962;41.566;23.734;2023-12-22T12:44:43;29.13;;;19.60;;
11809;SDS011;5962;41.566;23.734;2023-12-22T12:47:15;41.83;;;23.63;;
11809;SDS011;5962;41.566;23.734;2023-12-22T12:49:43;34.17;;;22.13;;
11809;SDS011;5962;41.566;23.734;2023-12-22T12:52:14;35.87;;;25.00;;
11809;SDS011;5962;41.566;23.734;2023-12-22T12:54:43;45.07;;;27.60;;
11809;SDS011;5962;41.566;23.734;2023-12-22T12:57:14;41.23;;;26.57;;
11809;SDS011;5962;41.566;23.734;2023-12-22T12:59:46;44.23;;;28.77;;
11809;SDS011;5962;41.566;23.734;2023-12-22T13:02:16;46.93;;;30.37;;
11809;SDS011;5962;41.566;23.734;2023-12-22T13:04:45;43.50;;;28.97;;
11809;SDS011;5962;41.566;23.734;2023-12-22T13:07:13;38.93;;;25.93;;
11809;SDS011;5962;41.566;23.734;2023-12-22T13:09:41;39.20;;;26.70;;
11809;SDS011;5962;41.566;23.734;2023-12-22T13:12:09;42.63;;;27.47;;
11809;SDS011;5962;41.566;23.734;2023-12-22T13:14:37;40.30;;;27.87;;
11809;SDS011;5962;41.566;23.734;2023-12-22T13:17:05;37.07;;;24.93;;
11809;SDS011;5962;41.566;23.734;2023-12-22T13:19:37;34.73;;;23.00;;
11809;SDS011;5962;41.566;23.734;2023-12-22T13:22:05;41.10;;;25.67;;
11809;SDS011;5962;41.566;23.734;2023-12-22T13:24:34;45.20;;;28.50;;
11809;SDS011;5962;41.566;23.734;2023-12-22T13:27:02;41.13;;;26.27;;
11809;SDS011;5962;41.566;23.734;2023-12-22T13:29:42;42.73;;;28.80;;
11809;SDS011;5962;41.566;23.734;2023-12-22T13:32:14;46.30;;;31.07;;
11809;SDS011;5962;41.566;23.734;2023-12-22T13:34:48;50.23;;;31.67;;
11809;SDS011;5962;41.566;23.734;2023-12-22T13:37:17;45.83;;;29.50;;
11809;SDS011;5962;41.566;23.734;2023-12-22T13:39:46;48.13;;;31.50;;
11809;SDS011;5962;41.566;23.734;2023-12-22T13:42:14;44.73;;;29.50;;
11809;SDS011;5962;41.566;23.734;2023-12-22T13:44:44;39.60;;;25.83;;
11809;SDS011;5962;41.566;23.734;2023-12-22T13:47:13;42.17;;;29.63;;
11809;SDS011;5962;41.566;23.734;2023-12-22T13:49:42;47.20;;;30.50;;
11809;SDS011;5962;41.566;23.734;2023-12-22T13:52:28;56.87;;;35.13;;
11809;SDS011;5962;41.566;23.734;2023-12-22T13:54:58;50.57;;;33.40;;
11809;SDS011;5962;41.566;23.734;2023-12-22T13:57:28;45.93;;;30.80;;
11809;SDS011;5962;41.566;23.734;2023-12-22T13:59:56;55.33;;;34.20;;
11809;SDS011;5962;41.566;23.734;2023-12-22T14:02:24;33.23;;;19.57;;
11809;SDS011;5962;41.566;23.734;2023-12-22T14:04:52;11.73;;;6.73;;
11809;SDS011;5962;41.566;23.734;2023-12-22T14:07:20;28.83;;;9.07;;
11809;SDS011;5962;41.566;23.734;2023-12-22T14:09:50;7.07;;;4.67;;
11809;SDS011;5962;41.566;23.734;2023-12-22T14:12:18;5.87;;;3.63;;
11809;SDS011;5962;41.566;23.734;2023-12-22T14:14:46;16.37;;;11.00;;
11809;SDS011;5962;41.566;23.734;2023-12-22T14:17:14;30.80;;;20.17;;
11809;SDS011;5962;41.566;23.734;2023-12-22T14:19:42;51.27;;;31.60;;
11809;SDS011;5962;41.566;23.734;2023-12-22T14:22:10;16.80;;;12.07;;
11809;SDS011;5962;41.566;23.734;2023-12-22T14:24:38;49.77;;;30.43;;
11809;SDS011;5962;41.566;23.734;2023-12-22T14:27:07;32.30;;;19.17;;
11809;SDS011;5962;41.566;23.734;2023-12-22T14:29:37;58.27;;;36.07;;
11809;SDS011;5962;41.566;23.734;2023-12-22T14:32:06;65.40;;;39.83;;
11809;SDS011;5962;41.566;23.734;2023-12-22T14:34:35;55.77;;;35.13;;
11809;SDS011;5962;41.566;23.734;2023-12-22T14:37:03;43.20;;;27.40;;